sensor_id;sensor_type;location;lat;lon;timestamp;P1;durP1;ratioP1;P2;durP2;ratioP2
60819;SDS011;46641;48.904;9.126;2022-07-03T00:02:28;4.57;;;3.00;;
60819;SDS011;46641;48.904;9.126;2022-07-03T00:07:18;3.17;;;2.83;;
60819;SDS011;46641;48.904;9.126;2022-07-03T00:12:09;3.43;;;3.13;;
60819;SDS011;46641;48.904;9.126;2022-07-03T00:16:59;3.40;;;3.10;;
60819;SDS011;46641;48.904;9.126;2022-07-03T00:21:56;4.90;;;2.73;;
60819;SDS011;46641;48.904;9.126;2022-07-03T00:26:52;3.00;;;2.53;;
60819;SDS011;46641;48.904;9.126;2022-07-03T00:31:43;3.40;;;3.00;;
60819;SDS011;46641;48.904;9.126;2022-07-03T00:36:35;2.83;;;2.30;;
60819;SDS011;46641;48.904;9.126;2022-07-03T00:41:28;3.47;;;2.70;;
60819;SDS011;46641;48.904;9.126;2022-07-03T00:46:21;3.33;;;2.50;;
60819;SDS011;46641;48.904;9.126;2022-07-03T00:51:14;3.57;;;3.00;;
60819;SDS011;46641;48.904;9.126;2022-07-03T00:56:05;5.23;;;2.83;;
60819;SDS011;46641;48.904;9.126;2022-07-03T01:00:58;3.27;;;2.70;;
60819;SDS011;46641;48.904;9.126;2022-07-03T01:05:51;3.10;;;2.63;;
60819;SDS011;46641;48.904;9.126;2022-07-03T01:10:54;3.37;;;2.90;;
60819;SDS011;46641;48.904;9.126;2022-07-03T01:21:12;3.40;;;3.10;;
60819;SDS011;46641;48.904;9.126;2022-07-03T01:26:24;3.77;;;3.03;;
60819;SDS011;46641;48.904;9.126;2022-07-03T01:31:18;3.00;;;2.80;;
60819;SDS011;46641;48.904;9.126;2022-07-03T01:36:12;3.37;;;3.10;;
60819;SDS011;46641;48.904;9.126;2022-07-03T01:41:06;3.30;;;3.00;;
60819;SDS011;46641;48.904;9.126;2022-07-03T01:46:00;3.60;;;3.30;;
60819;SDS011;46641;48.904;9.126;2022-07-03T01:50:52;3.00;;;2.80;;
60819;SDS011;46641;48.904;9.126;2022-07-03T01:55:43;2.77;;;2.57;;
60819;SDS011;46641;48.904;9.126;2022-07-03T02:00:41;3.20;;;2.90;;
60819;SDS011;46641;48.904;9.126;2022-07-03T02:05:43;4.43;;;3.43;;
60819;SDS011;46641;48.904;9.126;2022-07-03T02:11:21;4.50;;;2.93;;
60819;SDS011;46641;48.904;9.126;2022-07-03T02:15:52;4.70;;;2.90;;
60819;SDS011;46641;48.904;9.126;2022-07-03T02:20:45;6.13;;;3.43;;
60819;SDS011;46641;48.904;9.126;2022-07-03T02:25:41;3.90;;;3.00;;
60819;SDS011;46641;48.904;9.126;2022-07-03T02:30:35;4.13;;;2.93;;
60819;SDS011;46641;48.904;9.126;2022-07-03T02:35:30;3.00;;;2.70;;
60819;SDS011;46641;48.904;9.126;2022-07-03T02:40:31;2.60;;;2.40;;
60819;SDS011;46641;48.904;9.126;2022-07-03T02:50:40;2.53;;;2.43;;
60819;SDS011;46641;48.904;9.126;2022-07-03T02:55:39;2.73;;;2.50;;
60819;SDS011;46641;48.904;9.126;2022-07-03T03:00:33;3.57;;;3.27;;
60819;SDS011;46641;48.904;9.126;2022-07-03T03:10:39;3.30;;;3.10;;
60819;SDS011;46641;48.904;9.126;2022-07-03T03:15:31;3.10;;;2.70;;
60819;SDS011;46641;48.904;9.126;2022-07-03T03:20:22;3.00;;;2.80;;
60819;SDS011;46641;48.904;9.126;2022-07-03T03:25:19;2.97;;;2.77;;
60819;SDS011;46641;48.904;9.126;2022-07-03T03:30:10;2.80;;;2.60;;
60819;SDS011;46641;48.904;9.126;2022-07-03T03:35:01;3.47;;;3.17;;
60819;SDS011;46641;48.904;9.126;2022-07-03T03:39:51;5.87;;;3.67;;
60819;SDS011;46641;48.904;9.126;2022-07-03T03:44:42;3.17;;;2.90;;
60819;SDS011;46641;48.904;9.126;2022-07-03T03:49:32;3.40;;;2.80;;
60819;SDS011;46641;48.904;9.126;2022-07-03T03:54:23;2.70;;;2.50;;
60819;SDS011;46641;48.904;9.126;2022-07-03T03:59:13;2.73;;;2.53;;
60819;SDS011;46641;48.904;9.126;2022-07-03T04:04:04;4.27;;;3.10;;
60819;SDS011;46641;48.904;9.126;2022-07-03T04:08:54;2.92;;;2.72;;
60819;SDS011;46641;48.904;9.126;2022-07-03T04:13:45;3.23;;;2.80;;
60819;SDS011;46641;48.904;9.126;2022-07-03T04:18:38;3.87;;;3.10;;
60819;SDS011;46641;48.904;9.126;2022-07-03T04:23:29;2.57;;;2.30;;
60819;SDS011;46641;48.904;9.126;2022-07-03T04:28:20;3.03;;;2.50;;
60819;SDS011;46641;48.904;9.126;2022-07-03T04:33:10;2.20;;;2.10;;
60819;SDS011;46641;48.904;9.126;2022-07-03T04:38:01;2.10;;;2.00;;
60819;SDS011;46641;48.904;9.126;2022-07-03T04:42:51;2.43;;;2.23;;
60819;SDS011;46641;48.904;9.126;2022-07-03T04:47:41;4.00;;;2.80;;
60819;SDS011;46641;48.904;9.126;2022-07-03T04:52:32;2.30;;;2.20;;
60819;SDS011;46641;48.904;9.126;2022-07-03T04:57:22;2.20;;;2.10;;
60819;SDS011;46641;48.904;9.126;2022-07-03T05:02:12;2.57;;;1.83;;
60819;SDS011;46641;48.904;9.126;2022-07-03T05:07:03;3.37;;;2.17;;
60819;SDS011;46641;48.904;9.126;2022-07-03T05:11:53;2.13;;;1.90;;
60819;SDS011;46641;48.904;9.126;2022-07-03T05:16:44;2.23;;;2.07;;
60819;SDS011;46641;48.904;9.126;2022-07-03T05:21:34;2.53;;;2.07;;
60819;SDS011;46641;48.904;9.126;2022-07-03T05:26:24;2.00;;;1.90;;
60819;SDS011;46641;48.904;9.126;2022-07-03T05:31:15;3.17;;;2.40;;
60819;SDS011;46641;48.904;9.126;2022-07-03T05:36:06;2.10;;;2.00;;
60819;SDS011;46641;48.904;9.126;2022-07-03T05:40:56;1.70;;;1.60;;
60819;SDS011;46641;48.904;9.126;2022-07-03T05:45:47;2.20;;;2.00;;
60819;SDS011;46641;48.904;9.126;2022-07-03T05:50:38;2.00;;;1.90;;
60819;SDS011;46641;48.904;9.126;2022-07-03T05:55:28;1.90;;;1.80;;
60819;SDS011;46641;48.904;9.126;2022-07-03T06:00:19;2.07;;;1.97;;
60819;SDS011;46641;48.904;9.126;2022-07-03T06:05:09;1.97;;;1.87;;
60819;SDS011;46641;48.904;9.126;2022-07-03T06:09:59;2.10;;;1.90;;
60819;SDS011;46641;48.904;9.126;2022-07-03T06:14:50;1.70;;;1.60;;
60819;SDS011;46641;48.904;9.126;2022-07-03T06:19:40;2.67;;;2.00;;
60819;SDS011;46641;48.904;9.126;2022-07-03T06:24:30;2.77;;;2.00;;
60819;SDS011;46641;48.904;9.126;2022-07-03T06:29:21;1.87;;;1.77;;
60819;SDS011;46641;48.904;9.126;2022-07-03T06:34:11;2.87;;;2.07;;
60819;SDS011;46641;48.904;9.126;2022-07-03T06:39:01;2.73;;;2.30;;
60819;SDS011;46641;48.904;9.126;2022-07-03T06:43:51;2.10;;;1.90;;
60819;SDS011;46641;48.904;9.126;2022-07-03T06:48:42;1.97;;;1.87;;
60819;SDS011;46641;48.904;9.126;2022-07-03T06:53:32;2.40;;;2.20;;
60819;SDS011;46641;48.904;9.126;2022-07-03T06:58:22;2.33;;;1.60;;
60819;SDS011;46641;48.904;9.126;2022-07-03T07:03:13;2.03;;;1.80;;
60819;SDS011;46641;48.904;9.126;2022-07-03T07:08:03;2.50;;;1.83;;
60819;SDS011;46641;48.904;9.126;2022-07-03T07:12:53;1.70;;;1.60;;
60819;SDS011;46641;48.904;9.126;2022-07-03T07:17:44;1.50;;;1.40;;
60819;SDS011;46641;48.904;9.126;2022-07-03T07:22:34;1.73;;;1.60;;
60819;SDS011;46641;48.904;9.126;2022-07-03T07:27:25;1.63;;;1.53;;
60819;SDS011;46641;48.904;9.126;2022-07-03T07:32:15;1.60;;;1.50;;
60819;SDS011;46641;48.904;9.126;2022-07-03T07:37:05;1.67;;;1.58;;
60819;SDS011;46641;48.904;9.126;2022-07-03T07:41:55;1.53;;;1.50;;
60819;SDS011;46641;48.904;9.126;2022-07-03T07:46:46;1.97;;;1.43;;
60819;SDS011;46641;48.904;9.126;2022-07-03T07:51:36;1.70;;;1.60;;
60819;SDS011;46641;48.904;9.126;2022-07-03T07:56:26;4.43;;;1.40;;
60819;SDS011;46641;48.904;9.126;2022-07-03T08:01:17;1.53;;;1.43;;
60819;SDS011;46641;48.904;9.126;2022-07-03T08:06:27;1.53;;;1.43;;
60819;SDS011;46641;48.904;9.126;2022-07-03T08:11:17;1.60;;;1.30;;
60819;SDS011;46641;48.904;9.126;2022-07-03T08:16:08;2.30;;;1.50;;
60819;SDS011;46641;48.904;9.126;2022-07-03T08:20:59;1.77;;;1.40;;
60819;SDS011;46641;48.904;9.126;2022-07-03T08:25:50;1.37;;;1.30;;
60819;SDS011;46641;48.904;9.126;2022-07-03T08:30:40;1.90;;;1.63;;
60819;SDS011;46641;48.904;9.126;2022-07-03T08:35:31;1.60;;;1.50;;
60819;SDS011;46641;48.904;9.126;2022-07-03T08:40:21;1.90;;;1.50;;
60819;SDS011;46641;48.904;9.126;2022-07-03T08:45:13;1.70;;;1.60;;
60819;SDS011;46641;48.904;9.126;2022-07-03T08:50:05;1.50;;;1.40;;
60819;SDS011;46641;48.904;9.126;2022-07-03T08:54:56;1.63;;;1.53;;
60819;SDS011;46641;48.904;9.126;2022-07-03T08:59:52;1.70;;;1.40;;
60819;SDS011;46641;48.904;9.126;2022-07-03T09:04:43;1.97;;;1.60;;
60819;SDS011;46641;48.904;9.126;2022-07-03T09:09:34;1.53;;;1.43;;
60819;SDS011;46641;48.904;9.126;2022-07-03T09:14:26;1.70;;;1.60;;
60819;SDS011;46641;48.904;9.126;2022-07-03T09:19:38;2.37;;;1.43;;
60819;SDS011;46641;48.904;9.126;2022-07-03T09:24:32;2.67;;;1.40;;
60819;SDS011;46641;48.904;9.126;2022-07-03T09:29:22;3.23;;;1.90;;
60819;SDS011;46641;48.904;9.126;2022-07-03T09:34:13;3.90;;;1.60;;
60819;SDS011;46641;48.904;9.126;2022-07-03T09:39:48;1.70;;;1.50;;
60819;SDS011;46641;48.904;9.126;2022-07-03T09:49:43;2.37;;;1.90;;
60819;SDS011;46641;48.904;9.126;2022-07-03T09:54:36;1.50;;;1.40;;
60819;SDS011;46641;48.904;9.126;2022-07-03T09:59:27;1.40;;;1.07;;
60819;SDS011;46641;48.904;9.126;2022-07-03T10:04:18;1.50;;;1.40;;
60819;SDS011;46641;48.904;9.126;2022-07-03T10:09:09;1.70;;;1.40;;
60819;SDS011;46641;48.904;9.126;2022-07-03T10:13:59;1.43;;;1.30;;
60819;SDS011;46641;48.904;9.126;2022-07-03T10:18:50;2.07;;;1.37;;
60819;SDS011;46641;48.904;9.126;2022-07-03T10:23:42;1.00;;;1.00;;
60819;SDS011;46641;48.904;9.126;2022-07-03T10:28:34;3.07;;;1.10;;
60819;SDS011;46641;48.904;9.126;2022-07-03T10:33:26;1.45;;;1.10;;
60819;SDS011;46641;48.904;9.126;2022-07-03T10:43:15;0.93;;;0.93;;
60819;SDS011;46641;48.904;9.126;2022-07-03T10:59:02;1.40;;;1.25;;
60819;SDS011;46641;48.904;9.126;2022-07-03T11:04:01;1.03;;;1.03;;
60819;SDS011;46641;48.904;9.126;2022-07-03T11:09:02;2.63;;;1.20;;
60819;SDS011;46641;48.904;9.126;2022-07-03T11:14:36;1.13;;;1.00;;
60819;SDS011;46641;48.904;9.126;2022-07-03T11:19:08;1.00;;;1.00;;
60819;SDS011;46641;48.904;9.126;2022-07-03T11:29:24;1.20;;;1.10;;
60819;SDS011;46641;48.904;9.126;2022-07-03T11:34:20;2.45;;;0.95;;
60819;SDS011;46641;48.904;9.126;2022-07-03T11:39:12;1.20;;;1.10;;
60819;SDS011;46641;48.904;9.126;2022-07-03T11:44:24;1.23;;;1.23;;
60819;SDS011;46641;48.904;9.126;2022-07-03T11:54:06;1.35;;;1.23;;
60819;SDS011;46641;48.904;9.126;2022-07-03T11:58:58;1.40;;;1.30;;
60819;SDS011;46641;48.904;9.126;2022-07-03T12:03:49;0.90;;;0.90;;
60819;SDS011;46641;48.904;9.126;2022-07-03T12:08:40;2.17;;;1.30;;
60819;SDS011;46641;48.904;9.126;2022-07-03T12:13:35;1.25;;;1.25;;
60819;SDS011;46641;48.904;9.126;2022-07-03T12:18:26;2.92;;;1.42;;
60819;SDS011;46641;48.904;9.126;2022-07-03T12:23:16;1.10;;;1.10;;
60819;SDS011;46641;48.904;9.126;2022-07-03T12:28:10;1.00;;;1.00;;
60819;SDS011;46641;48.904;9.126;2022-07-03T12:33:02;1.65;;;1.35;;
60819;SDS011;46641;48.904;9.126;2022-07-03T12:37:53;2.08;;;1.38;;
60819;SDS011;46641;48.904;9.126;2022-07-03T12:42:48;1.67;;;1.15;;
60819;SDS011;46641;48.904;9.126;2022-07-03T12:47:40;1.40;;;1.30;;
60819;SDS011;46641;48.904;9.126;2022-07-03T12:52:31;1.40;;;1.30;;
60819;SDS011;46641;48.904;9.126;2022-07-03T12:57:23;1.67;;;1.50;;
60819;SDS011;46641;48.904;9.126;2022-07-03T13:02:33;1.30;;;1.20;;
60819;SDS011;46641;48.904;9.126;2022-07-03T13:07:27;1.02;;;1.00;;
60819;SDS011;46641;48.904;9.126;2022-07-03T13:12:22;1.67;;;1.40;;
60819;SDS011;46641;48.904;9.126;2022-07-03T13:17:13;1.75;;;1.63;;
60819;SDS011;46641;48.904;9.126;2022-07-03T13:22:03;2.05;;;1.38;;
60819;SDS011;46641;48.904;9.126;2022-07-03T13:26:53;1.90;;;1.20;;
60819;SDS011;46641;48.904;9.126;2022-07-03T13:31:44;1.27;;;1.15;;
60819;SDS011;46641;48.904;9.126;2022-07-03T13:36:36;1.73;;;1.05;;
60819;SDS011;46641;48.904;9.126;2022-07-03T13:41:26;1.50;;;1.40;;
60819;SDS011;46641;48.904;9.126;2022-07-03T13:46:19;1.45;;;1.42;;
60819;SDS011;46641;48.904;9.126;2022-07-03T13:51:14;1.08;;;1.08;;
60819;SDS011;46641;48.904;9.126;2022-07-03T13:56:04;1.55;;;1.33;;
60819;SDS011;46641;48.904;9.126;2022-07-03T14:00:55;1.90;;;1.20;;
60819;SDS011;46641;48.904;9.126;2022-07-03T14:05:45;1.42;;;1.27;;
60819;SDS011;46641;48.904;9.126;2022-07-03T14:10:40;1.63;;;1.33;;
60819;SDS011;46641;48.904;9.126;2022-07-03T14:15:32;2.38;;;1.42;;
60819;SDS011;46641;48.904;9.126;2022-07-03T14:20:23;2.15;;;1.40;;
60819;SDS011;46641;48.904;9.126;2022-07-03T14:25:13;1.92;;;1.50;;
60819;SDS011;46641;48.904;9.126;2022-07-03T14:30:04;2.05;;;1.42;;
60819;SDS011;46641;48.904;9.126;2022-07-03T14:35:13;1.30;;;1.20;;
60819;SDS011;46641;48.904;9.126;2022-07-03T14:40:03;2.78;;;1.40;;
60819;SDS011;46641;48.904;9.126;2022-07-03T14:44:54;1.50;;;1.40;;
60819;SDS011;46641;48.904;9.126;2022-07-03T14:49:44;1.15;;;1.15;;
60819;SDS011;46641;48.904;9.126;2022-07-03T14:54:35;2.00;;;1.30;;
60819;SDS011;46641;48.904;9.126;2022-07-03T15:09:48;1.25;;;0.95;;
60819;SDS011;46641;48.904;9.126;2022-07-03T15:14:50;1.10;;;1.00;;
60819;SDS011;46641;48.904;9.126;2022-07-03T15:19:42;1.80;;;1.23;;
60819;SDS011;46641;48.904;9.126;2022-07-03T15:24:33;1.80;;;1.05;;
60819;SDS011;46641;48.904;9.126;2022-07-03T15:29:26;2.00;;;1.38;;
60819;SDS011;46641;48.904;9.126;2022-07-03T15:34:16;0.90;;;0.90;;
60819;SDS011;46641;48.904;9.126;2022-07-03T15:39:07;1.67;;;1.20;;
60819;SDS011;46641;48.904;9.126;2022-07-03T15:44:10;1.88;;;1.40;;
60819;SDS011;46641;48.904;9.126;2022-07-03T15:49:15;1.50;;;1.20;;
60819;SDS011;46641;48.904;9.126;2022-07-03T15:54:31;1.98;;;1.30;;
60819;SDS011;46641;48.904;9.126;2022-07-03T15:59:31;1.42;;;1.23;;
60819;SDS011;46641;48.904;9.126;2022-07-03T16:09:25;2.58;;;1.50;;
60819;SDS011;46641;48.904;9.126;2022-07-03T16:14:16;2.08;;;1.40;;
60819;SDS011;46641;48.904;9.126;2022-07-03T16:19:07;1.20;;;1.20;;
60819;SDS011;46641;48.904;9.126;2022-07-03T16:24:00;1.40;;;1.10;;
60819;SDS011;46641;48.904;9.126;2022-07-03T16:28:50;2.75;;;1.33;;
60819;SDS011;46641;48.904;9.126;2022-07-03T16:33:42;2.58;;;1.30;;
60819;SDS011;46641;48.904;9.126;2022-07-03T16:38:40;1.40;;;1.30;;
60819;SDS011;46641;48.904;9.126;2022-07-03T16:43:38;1.67;;;1.20;;
60819;SDS011;46641;48.904;9.126;2022-07-03T16:48:30;1.50;;;1.23;;
60819;SDS011;46641;48.904;9.126;2022-07-03T16:53:24;1.55;;;1.15;;
60819;SDS011;46641;48.904;9.126;2022-07-03T16:58:15;2.72;;;1.35;;
60819;SDS011;46641;48.904;9.126;2022-07-03T17:03:06;2.35;;;1.40;;
60819;SDS011;46641;48.904;9.126;2022-07-03T17:07:57;1.58;;;1.10;;
60819;SDS011;46641;48.904;9.126;2022-07-03T17:12:49;1.40;;;1.30;;
60819;SDS011;46641;48.904;9.126;2022-07-03T17:17:40;1.17;;;1.15;;
60819;SDS011;46641;48.904;9.126;2022-07-03T17:22:36;1.20;;;1.20;;
60819;SDS011;46641;48.904;9.126;2022-07-03T17:27:29;1.95;;;1.13;;
60819;SDS011;46641;48.904;9.126;2022-07-03T17:32:21;1.52;;;1.23;;
60819;SDS011;46641;48.904;9.126;2022-07-03T17:37:13;2.92;;;1.25;;
60819;SDS011;46641;48.904;9.126;2022-07-03T17:42:05;1.48;;;1.38;;
60819;SDS011;46641;48.904;9.126;2022-07-03T17:47:03;1.33;;;1.15;;
60819;SDS011;46641;48.904;9.126;2022-07-03T17:51:53;2.13;;;1.30;;
60819;SDS011;46641;48.904;9.126;2022-07-03T17:56:45;1.98;;;1.13;;
60819;SDS011;46641;48.904;9.126;2022-07-03T18:01:36;1.88;;;1.50;;
60819;SDS011;46641;48.904;9.126;2022-07-03T18:06:28;2.35;;;1.42;;
60819;SDS011;46641;48.904;9.126;2022-07-03T18:11:27;4.45;;;4.07;;
60819;SDS011;46641;48.904;9.126;2022-07-03T18:16:37;2.80;;;1.60;;
60819;SDS011;46641;48.904;9.126;2022-07-03T18:21:30;1.58;;;1.30;;
60819;SDS011;46641;48.904;9.126;2022-07-03T18:31:16;6.13;;;5.35;;
60819;SDS011;46641;48.904;9.126;2022-07-03T18:36:07;5.13;;;4.63;;
60819;SDS011;46641;48.904;9.126;2022-07-03T18:40:58;3.53;;;2.90;;
60819;SDS011;46641;48.904;9.126;2022-07-03T18:45:48;2.30;;;1.73;;
60819;SDS011;46641;48.904;9.126;2022-07-03T18:50:40;3.92;;;1.80;;
60819;SDS011;46641;48.904;9.126;2022-07-03T18:55:45;1.80;;;1.70;;
60819;SDS011;46641;48.904;9.126;2022-07-03T19:00:41;4.60;;;2.78;;
60819;SDS011;46641;48.904;9.126;2022-07-03T19:05:46;1.77;;;1.67;;
60819;SDS011;46641;48.904;9.126;2022-07-03T19:10:42;3.10;;;1.50;;
60819;SDS011;46641;48.904;9.126;2022-07-03T19:15:41;1.60;;;1.50;;
60819;SDS011;46641;48.904;9.126;2022-07-03T19:20:32;1.90;;;1.50;;
60819;SDS011;46641;48.904;9.126;2022-07-03T19:25:24;1.90;;;1.58;;
60819;SDS011;46641;48.904;9.126;2022-07-03T19:30:15;2.83;;;1.75;;
60819;SDS011;46641;48.904;9.126;2022-07-03T19:35:06;3.03;;;2.20;;
60819;SDS011;46641;48.904;9.126;2022-07-03T19:39:57;2.28;;;1.65;;
60819;SDS011;46641;48.904;9.126;2022-07-03T19:44:47;1.80;;;1.67;;
60819;SDS011;46641;48.904;9.126;2022-07-03T19:49:37;2.50;;;2.13;;
60819;SDS011;46641;48.904;9.126;2022-07-03T19:54:28;3.15;;;2.17;;
60819;SDS011;46641;48.904;9.126;2022-07-03T19:59:18;3.60;;;1.83;;
60819;SDS011;46641;48.904;9.126;2022-07-03T20:04:08;2.40;;;1.92;;
60819;SDS011;46641;48.904;9.126;2022-07-03T20:08:59;2.50;;;1.67;;
60819;SDS011;46641;48.904;9.126;2022-07-03T20:13:49;2.38;;;1.90;;
60819;SDS011;46641;48.904;9.126;2022-07-03T20:18:39;2.40;;;1.83;;
60819;SDS011;46641;48.904;9.126;2022-07-03T20:23:30;4.93;;;2.25;;
60819;SDS011;46641;48.904;9.126;2022-07-03T20:28:20;2.40;;;1.70;;
60819;SDS011;46641;48.904;9.126;2022-07-03T20:33:11;3.30;;;1.80;;
60819;SDS011;46641;48.904;9.126;2022-07-03T20:38:01;4.40;;;2.90;;
60819;SDS011;46641;48.904;9.126;2022-07-03T20:42:53;1.98;;;1.60;;
60819;SDS011;46641;48.904;9.126;2022-07-03T20:47:43;2.42;;;1.98;;
60819;SDS011;46641;48.904;9.126;2022-07-03T20:52:33;2.03;;;1.80;;
60819;SDS011;46641;48.904;9.126;2022-07-03T20:57:24;2.97;;;1.88;;
60819;SDS011;46641;48.904;9.126;2022-07-03T21:02:14;2.17;;;1.97;;
60819;SDS011;46641;48.904;9.126;2022-07-03T21:07:05;3.90;;;1.65;;
60819;SDS011;46641;48.904;9.126;2022-07-03T21:11:56;2.55;;;2.17;;
60819;SDS011;46641;48.904;9.126;2022-07-03T21:16:47;2.42;;;1.80;;
60819;SDS011;46641;48.904;9.126;2022-07-03T21:21:38;2.05;;;1.85;;
60819;SDS011;46641;48.904;9.126;2022-07-03T21:26:29;1.77;;;1.67;;
60819;SDS011;46641;48.904;9.126;2022-07-03T21:31:20;1.85;;;1.75;;
60819;SDS011;46641;48.904;9.126;2022-07-03T21:36:11;5.32;;;2.00;;
60819;SDS011;46641;48.904;9.126;2022-07-03T21:41:02;2.25;;;1.90;;
60819;SDS011;46641;48.904;9.126;2022-07-03T21:45:52;3.15;;;2.50;;
60819;SDS011;46641;48.904;9.126;2022-07-03T21:50:43;2.78;;;2.10;;
60819;SDS011;46641;48.904;9.126;2022-07-03T21:55:33;2.65;;;2.10;;
60819;SDS011;46641;48.904;9.126;2022-07-03T22:00:23;3.75;;;1.90;;
60819;SDS011;46641;48.904;9.126;2022-07-03T22:05:14;1.90;;;1.80;;
60819;SDS011;46641;48.904;9.126;2022-07-03T22:10:05;2.08;;;1.85;;
60819;SDS011;46641;48.904;9.126;2022-07-03T22:14:57;2.50;;;1.98;;
60819;SDS011;46641;48.904;9.126;2022-07-03T22:19:49;3.85;;;2.80;;
60819;SDS011;46641;48.904;9.126;2022-07-03T22:24:40;2.50;;;1.80;;
60819;SDS011;46641;48.904;9.126;2022-07-03T22:29:30;2.43;;;2.13;;
60819;SDS011;46641;48.904;9.126;2022-07-03T22:34:20;3.03;;;1.80;;
60819;SDS011;46641;48.904;9.126;2022-07-03T22:39:11;2.23;;;2.03;;
60819;SDS011;46641;48.904;9.126;2022-07-03T22:44:02;2.10;;;1.90;;
60819;SDS011;46641;48.904;9.126;2022-07-03T22:48:53;2.20;;;2.00;;
60819;SDS011;46641;48.904;9.126;2022-07-03T22:53:43;2.47;;;1.98;;
60819;SDS011;46641;48.904;9.126;2022-07-03T22:58:33;2.42;;;2.22;;
60819;SDS011;46641;48.904;9.126;2022-07-03T23:03:24;2.15;;;1.95;;
60819;SDS011;46641;48.904;9.126;2022-07-03T23:08:14;5.67;;;2.20;;
60819;SDS011;46641;48.904;9.126;2022-07-03T23:13:04;2.47;;;1.80;;
60819;SDS011;46641;48.904;9.126;2022-07-03T23:17:54;2.70;;;1.77;;
60819;SDS011;46641;48.904;9.126;2022-07-03T23:22:45;1.90;;;1.80;;
60819;SDS011;46641;48.904;9.126;2022-07-03T23:27:35;4.00;;;1.90;;
60819;SDS011;46641;48.904;9.126;2022-07-03T23:32:25;2.57;;;2.00;;
60819;SDS011;46641;48.904;9.126;2022-07-03T23:37:16;2.00;;;1.70;;
60819;SDS011;46641;48.904;9.126;2022-07-03T23:42:06;2.63;;;1.80;;
60819;SDS011;46641;48.904;9.126;2022-07-03T23:46:56;2.23;;;2.03;;
60819;SDS011;46641;48.904;9.126;2022-07-03T23:51:47;2.30;;;2.10;;
60819;SDS011;46641;48.904;9.126;2022-07-03T23:56:37;2.50;;;2.00;;
